sensor_id;sensor_type;location;lat;lon;timestamp;P1;durP1;ratioP1;P2;durP2;ratioP2
24084;SDS011;12268;52.110;5.548;2024-03-23T10:51:08;7.15;;;2.38;;
24084;SDS011;12268;52.110;5.548;2024-03-23T10:53:34;7.80;;;2.00;;
24084;SDS011;12268;52.110;5.548;2024-03-23T10:56:02;6.65;;;1.98;;
24084;SDS011;12268;52.110;5.548;2024-03-23T10:58:30;8.48;;;2.15;;
24084;SDS011;12268;52.110;5.548;2024-03-23T11:01:00;9.52;;;2.70;;
24084;SDS011;12268;52.110;5.548;2024-03-23T11:06:04;3.92;;;1.33;;
24084;SDS011;12268;52.110;5.548;2024-03-23T11:08:34;2.92;;;1.48;;
24084;SDS011;12268;52.110;5.548;2024-03-23T12:20:59;3.92;;;1.60;;
24084;SDS011;12268;52.110;5.548;2024-03-23T12:23:25;3.63;;;1.52;;
24084;SDS011;12268;52.110;5.548;2024-03-23T12:25:50;4.13;;;1.60;;
24084;SDS011;12268;52.110;5.548;2024-03-23T12:28:16;6.25;;;1.67;;
24084;SDS011;12268;52.110;5.548;2024-03-23T12:30:42;8.13;;;2.17;;
24084;SDS011;12268;52.110;5.548;2024-03-23T12:33:07;10.95;;;2.33;;
24084;SDS011;12268;52.110;5.548;2024-03-23T12:35:33;6.07;;;1.70;;
24084;SDS011;12268;52.110;5.548;2024-03-23T12:37:59;4.28;;;1.27;;
24084;SDS011;12268;52.110;5.548;2024-03-23T12:40:25;8.52;;;2.08;;
24084;SDS011;12268;52.110;5.548;2024-03-23T12:42:52;6.88;;;2.13;;
24084;SDS011;12268;52.110;5.548;2024-03-23T12:45:18;5.88;;;2.05;;
24084;SDS011;12268;52.110;5.548;2024-03-23T12:47:44;5.43;;;2.05;;
24084;SDS011;12268;52.110;5.548;2024-03-23T12:50:09;11.02;;;2.30;;
24084;SDS011;12268;52.110;5.548;2024-03-23T12:52:36;7.93;;;2.30;;
24084;SDS011;12268;52.110;5.548;2024-03-23T12:55:02;7.70;;;2.22;;
24084;SDS011;12268;52.110;5.548;2024-03-23T12:57:30;9.82;;;2.40;;
24084;SDS011;12268;52.110;5.548;2024-03-23T12:59:56;4.45;;;1.77;;
24084;SDS011;12268;52.110;5.548;2024-03-23T13:02:22;8.80;;;2.20;;
24084;SDS011;12268;52.110;5.548;2024-03-23T13:04:52;6.85;;;2.20;;
24084;SDS011;12268;52.110;5.548;2024-03-23T13:07:18;1.05;;;0.90;;
24084;SDS011;12268;52.110;5.548;2024-03-23T13:09:45;4.55;;;1.63;;
24084;SDS011;12268;52.110;5.548;2024-03-23T13:12:12;4.97;;;1.40;;
24084;SDS011;12268;52.110;5.548;2024-03-23T13:14:38;4.15;;;1.73;;
24084;SDS011;12268;52.110;5.548;2024-03-23T13:17:04;2.83;;;1.75;;
24084;SDS011;12268;52.110;5.548;2024-03-23T13:19:30;4.25;;;1.70;;
24084;SDS011;12268;52.110;5.548;2024-03-23T13:21:56;4.95;;;1.98;;
24084;SDS011;12268;52.110;5.548;2024-03-23T13:24:24;5.03;;;1.92;;
24084;SDS011;12268;52.110;5.548;2024-03-23T13:26:50;8.10;;;2.00;;
24084;SDS011;12268;52.110;5.548;2024-03-23T13:29:17;9.05;;;2.05;;
24084;SDS011;12268;52.110;5.548;2024-03-23T13:31:43;2.70;;;1.50;;
24084;SDS011;12268;52.110;5.548;2024-03-23T13:34:08;7.32;;;2.05;;
24084;SDS011;12268;52.110;5.548;2024-03-23T13:36:34;4.00;;;1.73;;
24084;SDS011;12268;52.110;5.548;2024-03-23T13:39:01;2.85;;;1.20;;
24084;SDS011;12268;52.110;5.548;2024-03-23T13:41:39;2.97;;;1.27;;
24084;SDS011;12268;52.110;5.548;2024-03-23T13:44:06;3.47;;;1.58;;
24084;SDS011;12268;52.110;5.548;2024-03-23T13:46:32;4.03;;;1.58;;
24084;SDS011;12268;52.110;5.548;2024-03-23T13:48:58;2.85;;;1.33;;
24084;SDS011;12268;52.110;5.548;2024-03-23T13:51:24;2.70;;;1.20;;
24084;SDS011;12268;52.110;5.548;2024-03-23T13:53:52;3.80;;;1.70;;
24084;SDS011;12268;52.110;5.548;2024-03-23T13:56:19;4.22;;;1.67;;
24084;SDS011;12268;52.110;5.548;2024-03-23T13:58:44;3.65;;;1.55;;
24084;SDS011;12268;52.110;5.548;2024-03-23T14:01:12;5.03;;;1.73;;
24084;SDS011;12268;52.110;5.548;2024-03-23T14:03:38;3.88;;;1.42;;
24084;SDS011;12268;52.110;5.548;2024-03-23T14:06:04;7.85;;;1.90;;
24084;SDS011;12268;52.110;5.548;2024-03-23T14:08:31;3.08;;;1.75;;
24084;SDS011;12268;52.110;5.548;2024-03-23T14:10:58;6.18;;;1.90;;
24084;SDS011;12268;52.110;5.548;2024-03-23T14:13:23;4.82;;;1.75;;
24084;SDS011;12268;52.110;5.548;2024-03-23T14:15:53;7.40;;;1.58;;
24084;SDS011;12268;52.110;5.548;2024-03-23T14:18:18;2.45;;;1.80;;
24084;SDS011;12268;52.110;5.548;2024-03-23T14:20:44;2.88;;;1.45;;
24084;SDS011;12268;52.110;5.548;2024-03-23T14:23:10;3.38;;;1.98;;
24084;SDS011;12268;52.110;5.548;2024-03-23T14:25:35;8.23;;;2.40;;
24084;SDS011;12268;52.110;5.548;2024-03-23T14:28:01;2.80;;;1.20;;
24084;SDS011;12268;52.110;5.548;2024-03-23T14:30:26;4.07;;;1.75;;
24084;SDS011;12268;52.110;5.548;2024-03-23T14:32:52;3.55;;;1.75;;
24084;SDS011;12268;52.110;5.548;2024-03-23T14:35:18;11.50;;;2.47;;
24084;SDS011;12268;52.110;5.548;2024-03-23T14:37:43;4.68;;;2.00;;
24084;SDS011;12268;52.110;5.548;2024-03-23T14:40:09;8.15;;;2.17;;
24084;SDS011;12268;52.110;5.548;2024-03-23T14:42:37;8.40;;;1.92;;
24084;SDS011;12268;52.110;5.548;2024-03-23T14:45:03;11.10;;;2.47;;
24084;SDS011;12268;52.110;5.548;2024-03-23T14:47:30;5.22;;;2.15;;
24084;SDS011;12268;52.110;5.548;2024-03-23T14:49:56;6.03;;;2.08;;
24084;SDS011;12268;52.110;5.548;2024-03-23T14:52:23;3.47;;;1.80;;
24084;SDS011;12268;52.110;5.548;2024-03-23T14:54:49;5.72;;;2.45;;
24084;SDS011;12268;52.110;5.548;2024-03-23T14:57:15;9.02;;;2.13;;
24084;SDS011;12268;52.110;5.548;2024-03-23T14:59:40;5.47;;;2.05;;
24084;SDS011;12268;52.110;5.548;2024-03-23T15:02:07;8.15;;;2.10;;
24084;SDS011;12268;52.110;5.548;2024-03-23T15:04:33;6.43;;;2.08;;
24084;SDS011;12268;52.110;5.548;2024-03-23T15:06:59;7.40;;;2.60;;
24084;SDS011;12268;52.110;5.548;2024-03-23T15:09:25;3.00;;;1.05;;
24084;SDS011;12268;52.110;5.548;2024-03-23T15:11:50;5.03;;;2.28;;
24084;SDS011;12268;52.110;5.548;2024-03-23T15:14:16;3.88;;;1.55;;
24084;SDS011;12268;52.110;5.548;2024-03-23T15:16:41;3.10;;;1.30;;
24084;SDS011;12268;52.110;5.548;2024-03-23T15:19:07;6.13;;;1.75;;
24084;SDS011;12268;52.110;5.548;2024-03-23T15:21:33;5.32;;;1.73;;
24084;SDS011;12268;52.110;5.548;2024-03-23T15:23:59;3.55;;;1.80;;
24084;SDS011;12268;52.110;5.548;2024-03-23T15:26:25;5.70;;;1.98;;
24084;SDS011;12268;52.110;5.548;2024-03-23T15:28:51;7.00;;;1.88;;
24084;SDS011;12268;52.110;5.548;2024-03-23T15:31:23;6.53;;;1.60;;
24084;SDS011;12268;52.110;5.548;2024-03-23T15:33:49;2.78;;;1.73;;
24084;SDS011;12268;52.110;5.548;2024-03-23T15:36:15;11.88;;;1.92;;
24084;SDS011;12268;52.110;5.548;2024-03-23T15:38:41;1.45;;;1.30;;
24084;SDS011;12268;52.110;5.548;2024-03-23T15:41:07;4.88;;;1.48;;
24084;SDS011;12268;52.110;5.548;2024-03-23T15:43:33;3.35;;;1.80;;
24084;SDS011;12268;52.110;5.548;2024-03-23T15:46:03;5.13;;;1.95;;
24084;SDS011;12268;52.110;5.548;2024-03-23T15:48:31;1.60;;;1.50;;
24084;SDS011;12268;52.110;5.548;2024-03-23T15:50:57;6.95;;;2.00;;
24084;SDS011;12268;52.110;5.548;2024-03-23T15:53:25;4.45;;;1.60;;
24084;SDS011;12268;52.110;5.548;2024-03-23T15:55:55;3.10;;;2.33;;
24084;SDS011;12268;52.110;5.548;2024-03-23T15:58:22;3.97;;;1.67;;
24084;SDS011;12268;52.110;5.548;2024-03-23T16:00:54;3.13;;;1.60;;
24084;SDS011;12268;52.110;5.548;2024-03-23T16:03:24;7.05;;;1.75;;
24084;SDS011;12268;52.110;5.548;2024-03-23T16:05:55;3.30;;;1.42;;
24084;SDS011;12268;52.110;5.548;2024-03-23T16:08:25;2.63;;;1.85;;
24084;SDS011;12268;52.110;5.548;2024-03-23T16:10:51;5.30;;;2.53;;
24084;SDS011;12268;52.110;5.548;2024-03-23T16:13:17;3.92;;;1.52;;
24084;SDS011;12268;52.110;5.548;2024-03-23T16:15:43;5.40;;;2.40;;
24084;SDS011;12268;52.110;5.548;2024-03-23T16:18:09;4.38;;;1.77;;
24084;SDS011;12268;52.110;5.548;2024-03-23T16:20:35;1.95;;;1.38;;
24084;SDS011;12268;52.110;5.548;2024-03-23T16:23:01;3.10;;;1.50;;
24084;SDS011;12268;52.110;5.548;2024-03-23T16:25:27;5.57;;;2.20;;
24084;SDS011;12268;52.110;5.548;2024-03-23T16:27:53;7.05;;;2.30;;
24084;SDS011;12268;52.110;5.548;2024-03-23T16:30:19;6.47;;;2.35;;
24084;SDS011;12268;52.110;5.548;2024-03-23T16:32:45;3.90;;;1.92;;
24084;SDS011;12268;52.110;5.548;2024-03-23T16:35:14;3.22;;;1.75;;
24084;SDS011;12268;52.110;5.548;2024-03-23T16:37:41;3.80;;;2.35;;
24084;SDS011;12268;52.110;5.548;2024-03-23T16:40:07;5.15;;;2.60;;
24084;SDS011;12268;52.110;5.548;2024-03-23T16:42:36;7.13;;;1.95;;
24084;SDS011;12268;52.110;5.548;2024-03-23T16:45:02;5.05;;;2.33;;
24084;SDS011;12268;52.110;5.548;2024-03-23T16:47:28;7.97;;;2.20;;
24084;SDS011;12268;52.110;5.548;2024-03-23T16:49:54;6.38;;;1.88;;
24084;SDS011;12268;52.110;5.548;2024-03-23T16:52:20;2.35;;;1.35;;
24084;SDS011;12268;52.110;5.548;2024-03-23T16:54:45;6.03;;;1.67;;
24084;SDS011;12268;52.110;5.548;2024-03-23T16:57:13;3.45;;;1.88;;
24084;SDS011;12268;52.110;5.548;2024-03-23T16:59:38;2.95;;;1.52;;
24084;SDS011;12268;52.110;5.548;2024-03-23T17:02:04;4.25;;;2.13;;
24084;SDS011;12268;52.110;5.548;2024-03-23T17:04:30;6.10;;;2.17;;
24084;SDS011;12268;52.110;5.548;2024-03-23T17:06:55;4.03;;;1.85;;
24084;SDS011;12268;52.110;5.548;2024-03-23T17:09:21;1.48;;;1.30;;
24084;SDS011;12268;52.110;5.548;2024-03-23T17:11:47;2.15;;;1.58;;
24084;SDS011;12268;52.110;5.548;2024-03-23T17:14:14;1.83;;;1.45;;
24084;SDS011;12268;52.110;5.548;2024-03-23T17:16:40;2.88;;;1.40;;
24084;SDS011;12268;52.110;5.548;2024-03-23T17:19:06;2.03;;;1.52;;
24084;SDS011;12268;52.110;5.548;2024-03-23T17:21:34;3.33;;;1.75;;
24084;SDS011;12268;52.110;5.548;2024-03-23T17:24:00;5.22;;;2.00;;
24084;SDS011;12268;52.110;5.548;2024-03-23T17:26:26;4.47;;;1.85;;
24084;SDS011;12268;52.110;5.548;2024-03-23T17:28:51;3.90;;;1.60;;
24084;SDS011;12268;52.110;5.548;2024-03-23T17:31:17;4.40;;;1.90;;
24084;SDS011;12268;52.110;5.548;2024-03-23T17:33:44;3.75;;;1.67;;
24084;SDS011;12268;52.110;5.548;2024-03-23T17:36:09;5.18;;;1.92;;
24084;SDS011;12268;52.110;5.548;2024-03-23T17:38:35;3.20;;;1.90;;
24084;SDS011;12268;52.110;5.548;2024-03-23T17:41:02;2.90;;;1.90;;
24084;SDS011;12268;52.110;5.548;2024-03-23T17:43:29;4.78;;;2.25;;
24084;SDS011;12268;52.110;5.548;2024-03-23T17:45:55;2.13;;;1.75;;
24084;SDS011;12268;52.110;5.548;2024-03-23T17:48:24;5.13;;;2.20;;
24084;SDS011;12268;52.110;5.548;2024-03-23T17:50:59;7.05;;;2.10;;
24084;SDS011;12268;52.110;5.548;2024-03-23T17:53:26;2.75;;;2.15;;
24084;SDS011;12268;52.110;5.548;2024-03-23T17:55:52;4.93;;;2.10;;
24084;SDS011;12268;52.110;5.548;2024-03-23T17:58:17;3.70;;;2.33;;
24084;SDS011;12268;52.110;5.548;2024-03-23T18:00:44;5.82;;;2.35;;
24084;SDS011;12268;52.110;5.548;2024-03-23T18:03:09;10.45;;;2.22;;
24084;SDS011;12268;52.110;5.548;2024-03-23T18:05:35;4.03;;;2.35;;
24084;SDS011;12268;52.110;5.548;2024-03-23T18:08:00;5.03;;;2.35;;
24084;SDS011;12268;52.110;5.548;2024-03-23T18:10:26;4.82;;;2.60;;
24084;SDS011;12268;52.110;5.548;2024-03-23T18:12:51;5.22;;;2.47;;
24084;SDS011;12268;52.110;5.548;2024-03-23T18:15:17;11.90;;;2.90;;
24084;SDS011;12268;52.110;5.548;2024-03-23T18:17:43;6.50;;;2.35;;
24084;SDS011;12268;52.110;5.548;2024-03-23T18:20:08;6.03;;;2.40;;
24084;SDS011;12268;52.110;5.548;2024-03-23T18:22:35;4.38;;;2.40;;
24084;SDS011;12268;52.110;5.548;2024-03-23T18:25:00;5.10;;;2.40;;
24084;SDS011;12268;52.110;5.548;2024-03-23T18:27:26;6.00;;;2.50;;
24084;SDS011;12268;52.110;5.548;2024-03-23T18:29:52;4.65;;;2.80;;
24084;SDS011;12268;52.110;5.548;2024-03-23T18:32:18;6.32;;;2.90;;
24084;SDS011;12268;52.110;5.548;2024-03-23T18:34:43;6.40;;;3.08;;
24084;SDS011;12268;52.110;5.548;2024-03-23T18:37:09;12.18;;;3.50;;
24084;SDS011;12268;52.110;5.548;2024-03-23T18:39:34;9.05;;;3.58;;
24084;SDS011;12268;52.110;5.548;2024-03-23T18:42:00;8.70;;;3.05;;
24084;SDS011;12268;52.110;5.548;2024-03-23T18:44:26;9.55;;;3.20;;
24084;SDS011;12268;52.110;5.548;2024-03-23T18:46:51;9.90;;;3.33;;
24084;SDS011;12268;52.110;5.548;2024-03-23T18:49:17;8.73;;;4.10;;
24084;SDS011;12268;52.110;5.548;2024-03-23T18:51:44;6.43;;;3.45;;
24084;SDS011;12268;52.110;5.548;2024-03-23T18:54:09;10.68;;;3.83;;
24084;SDS011;12268;52.110;5.548;2024-03-23T18:56:35;8.77;;;4.60;;
24084;SDS011;12268;52.110;5.548;2024-03-23T18:59:01;13.20;;;4.10;;
24084;SDS011;12268;52.110;5.548;2024-03-23T19:01:26;7.97;;;3.65;;
24084;SDS011;12268;52.110;5.548;2024-03-23T19:03:52;4.95;;;3.08;;
24084;SDS011;12268;52.110;5.548;2024-03-23T19:06:18;7.45;;;3.33;;
24084;SDS011;12268;52.110;5.548;2024-03-23T19:08:43;3.88;;;2.83;;
24084;SDS011;12268;52.110;5.548;2024-03-23T19:11:09;7.57;;;3.35;;
24084;SDS011;12268;52.110;5.548;2024-03-23T19:13:35;6.57;;;3.17;;
24084;SDS011;12268;52.110;5.548;2024-03-23T19:16:01;8.70;;;2.95;;
24084;SDS011;12268;52.110;5.548;2024-03-23T19:18:27;4.30;;;2.75;;
24084;SDS011;12268;52.110;5.548;2024-03-23T19:20:57;5.57;;;3.00;;
24084;SDS011;12268;52.110;5.548;2024-03-23T19:23:23;5.28;;;3.17;;
24084;SDS011;12268;52.110;5.548;2024-03-23T19:25:56;6.00;;;3.40;;
24084;SDS011;12268;52.110;5.548;2024-03-23T19:28:24;6.88;;;3.40;;
24084;SDS011;12268;52.110;5.548;2024-03-23T19:30:51;5.68;;;3.08;;
24084;SDS011;12268;52.110;5.548;2024-03-23T19:33:17;6.63;;;2.83;;
24084;SDS011;12268;52.110;5.548;2024-03-23T19:35:43;8.60;;;3.17;;
24084;SDS011;12268;52.110;5.548;2024-03-23T19:38:09;6.40;;;2.90;;
24084;SDS011;12268;52.110;5.548;2024-03-23T19:40:35;6.90;;;2.90;;
24084;SDS011;12268;52.110;5.548;2024-03-23T19:43:01;7.40;;;3.08;;
24084;SDS011;12268;52.110;5.548;2024-03-23T19:45:27;5.95;;;3.33;;
24084;SDS011;12268;52.110;5.548;2024-03-23T19:47:55;6.25;;;3.13;;
24084;SDS011;12268;52.110;5.548;2024-03-23T19:50:21;7.20;;;3.30;;
24084;SDS011;12268;52.110;5.548;2024-03-23T19:52:48;7.75;;;3.42;;
24084;SDS011;12268;52.110;5.548;2024-03-23T19:55:15;12.82;;;3.72;;
24084;SDS011;12268;52.110;5.548;2024-03-23T19:57:41;10.35;;;3.28;;
24084;SDS011;12268;52.110;5.548;2024-03-23T20:00:07;9.07;;;3.50;;
24084;SDS011;12268;52.110;5.548;2024-03-23T20:02:33;10.00;;;3.22;;
24084;SDS011;12268;52.110;5.548;2024-03-23T20:04:59;7.40;;;3.20;;
24084;SDS011;12268;52.110;5.548;2024-03-23T20:07:25;5.28;;;3.25;;
24084;SDS011;12268;52.110;5.548;2024-03-23T20:09:51;7.40;;;3.88;;
24084;SDS011;12268;52.110;5.548;2024-03-23T20:12:17;8.55;;;3.75;;
24084;SDS011;12268;52.110;5.548;2024-03-23T20:14:43;10.00;;;3.35;;
24084;SDS011;12268;52.110;5.548;2024-03-23T20:17:10;10.55;;;3.97;;
24084;SDS011;12268;52.110;5.548;2024-03-23T20:19:36;5.63;;;3.47;;
24084;SDS011;12268;52.110;5.548;2024-03-23T20:22:02;6.80;;;3.28;;
24084;SDS011;12268;52.110;5.548;2024-03-23T20:24:27;8.95;;;3.63;;
24084;SDS011;12268;52.110;5.548;2024-03-23T20:26:53;6.78;;;3.50;;
24084;SDS011;12268;52.110;5.548;2024-03-23T20:29:19;5.10;;;3.40;;
24084;SDS011;12268;52.110;5.548;2024-03-23T20:31:45;5.07;;;3.25;;
24084;SDS011;12268;52.110;5.548;2024-03-23T20:34:11;8.93;;;3.25;;
24084;SDS011;12268;52.110;5.548;2024-03-23T20:36:36;8.80;;;3.45;;
24084;SDS011;12268;52.110;5.548;2024-03-23T20:39:02;10.43;;;3.15;;
24084;SDS011;12268;52.110;5.548;2024-03-23T20:41:28;8.55;;;3.03;;
24084;SDS011;12268;52.110;5.548;2024-03-23T20:43:54;7.68;;;3.03;;
24084;SDS011;12268;52.110;5.548;2024-03-23T20:46:20;6.97;;;2.78;;
24084;SDS011;12268;52.110;5.548;2024-03-23T20:48:46;6.00;;;2.80;;
24084;SDS011;12268;52.110;5.548;2024-03-23T20:51:15;5.20;;;2.80;;
24084;SDS011;12268;52.110;5.548;2024-03-23T20:53:41;10.13;;;3.03;;
24084;SDS011;12268;52.110;5.548;2024-03-23T20:56:07;7.25;;;2.97;;
24084;SDS011;12268;52.110;5.548;2024-03-23T20:58:35;8.60;;;2.40;;
24084;SDS011;12268;52.110;5.548;2024-03-23T21:01:04;8.73;;;2.80;;
24084;SDS011;12268;52.110;5.548;2024-03-23T21:03:31;5.28;;;2.60;;
24084;SDS011;12268;52.110;5.548;2024-03-23T21:05:58;8.15;;;2.70;;
24084;SDS011;12268;52.110;5.548;2024-03-23T21:08:23;9.45;;;3.35;;
24084;SDS011;12268;52.110;5.548;2024-03-23T21:10:53;3.65;;;2.45;;
24084;SDS011;12268;52.110;5.548;2024-03-23T21:13:20;3.83;;;2.35;;
24084;SDS011;12268;52.110;5.548;2024-03-23T21:15:50;2.40;;;2.20;;
24084;SDS011;12268;52.110;5.548;2024-03-23T21:18:17;5.70;;;2.90;;
24084;SDS011;12268;52.110;5.548;2024-03-23T21:20:43;6.45;;;2.80;;
24084;SDS011;12268;52.110;5.548;2024-03-23T21:23:09;5.55;;;2.47;;
24084;SDS011;12268;52.110;5.548;2024-03-23T21:25:35;6.00;;;2.72;;
24084;SDS011;12268;52.110;5.548;2024-03-23T21:28:00;5.53;;;2.78;;
24084;SDS011;12268;52.110;5.548;2024-03-23T21:30:26;4.70;;;2.60;;
24084;SDS011;12268;52.110;5.548;2024-03-23T21:32:51;9.20;;;3.17;;
24084;SDS011;12268;52.110;5.548;2024-03-23T21:35:17;8.40;;;2.60;;
24084;SDS011;12268;52.110;5.548;2024-03-23T21:37:45;4.35;;;2.33;;
24084;SDS011;12268;52.110;5.548;2024-03-23T21:40:11;6.45;;;2.78;;
24084;SDS011;12268;52.110;5.548;2024-03-23T21:42:36;5.55;;;2.50;;
24084;SDS011;12268;52.110;5.548;2024-03-23T21:45:02;6.22;;;2.53;;
24084;SDS011;12268;52.110;5.548;2024-03-23T21:47:29;6.28;;;2.60;;
24084;SDS011;12268;52.110;5.548;2024-03-23T21:49:55;10.65;;;2.70;;
24084;SDS011;12268;52.110;5.548;2024-03-23T21:52:20;9.40;;;2.88;;
24084;SDS011;12268;52.110;5.548;2024-03-23T21:54:46;5.88;;;2.38;;
24084;SDS011;12268;52.110;5.548;2024-03-23T21:57:12;7.20;;;3.38;;
24084;SDS011;12268;52.110;5.548;2024-03-23T21:59:37;5.90;;;3.20;;
24084;SDS011;12268;52.110;5.548;2024-03-23T22:02:04;7.97;;;2.72;;
24084;SDS011;12268;52.110;5.548;2024-03-23T22:04:30;4.32;;;2.67;;
24084;SDS011;12268;52.110;5.548;2024-03-23T22:06:56;6.85;;;3.60;;
24084;SDS011;12268;52.110;5.548;2024-03-23T22:09:23;6.95;;;2.92;;
24084;SDS011;12268;52.110;5.548;2024-03-23T22:11:48;9.15;;;2.83;;
24084;SDS011;12268;52.110;5.548;2024-03-23T22:14:14;7.57;;;3.47;;
24084;SDS011;12268;52.110;5.548;2024-03-23T22:16:39;7.38;;;3.58;;
24084;SDS011;12268;52.110;5.548;2024-03-23T22:19:06;8.93;;;2.97;;
24084;SDS011;12268;52.110;5.548;2024-03-23T22:21:32;7.47;;;3.55;;
24084;SDS011;12268;52.110;5.548;2024-03-23T22:23:58;5.50;;;3.40;;
24084;SDS011;12268;52.110;5.548;2024-03-23T22:26:23;4.50;;;2.95;;
24084;SDS011;12268;52.110;5.548;2024-03-23T22:28:49;6.38;;;3.58;;
24084;SDS011;12268;52.110;5.548;2024-03-23T22:31:14;9.73;;;4.28;;
24084;SDS011;12268;52.110;5.548;2024-03-23T22:33:40;7.10;;;4.10;;
24084;SDS011;12268;52.110;5.548;2024-03-23T22:36:06;7.15;;;4.10;;
24084;SDS011;12268;52.110;5.548;2024-03-23T22:38:31;7.65;;;3.83;;
24084;SDS011;12268;52.110;5.548;2024-03-23T22:40:58;6.03;;;3.72;;
24084;SDS011;12268;52.110;5.548;2024-03-23T22:43:29;9.38;;;4.00;;
24084;SDS011;12268;52.110;5.548;2024-03-23T22:46:01;10.73;;;4.35;;
24084;SDS011;12268;52.110;5.548;2024-03-23T22:48:28;6.63;;;3.70;;
24084;SDS011;12268;52.110;5.548;2024-03-23T22:50:56;5.60;;;3.30;;
24084;SDS011;12268;52.110;5.548;2024-03-23T22:53:24;4.63;;;2.75;;
24084;SDS011;12268;52.110;5.548;2024-03-23T22:55:51;7.15;;;3.17;;
24084;SDS011;12268;52.110;5.548;2024-03-23T22:58:17;4.57;;;2.65;;
24084;SDS011;12268;52.110;5.548;2024-03-23T23:00:43;5.13;;;2.70;;
24084;SDS011;12268;52.110;5.548;2024-03-23T23:03:13;7.20;;;3.15;;
24084;SDS011;12268;52.110;5.548;2024-03-23T23:05:40;3.35;;;2.50;;
24084;SDS011;12268;52.110;5.548;2024-03-23T23:08:06;7.10;;;3.28;;
24084;SDS011;12268;52.110;5.548;2024-03-23T23:10:32;7.80;;;3.50;;
24084;SDS011;12268;52.110;5.548;2024-03-23T23:12:58;4.28;;;3.22;;
24084;SDS011;12268;52.110;5.548;2024-03-23T23:15:24;6.68;;;3.05;;
24084;SDS011;12268;52.110;5.548;2024-03-23T23:17:50;7.80;;;4.05;;
24084;SDS011;12268;52.110;5.548;2024-03-23T23:20:16;5.10;;;3.22;;
24084;SDS011;12268;52.110;5.548;2024-03-23T23:22:42;7.35;;;3.75;;
24084;SDS011;12268;52.110;5.548;2024-03-23T23:25:08;9.38;;;4.18;;
24084;SDS011;12268;52.110;5.548;2024-03-23T23:27:34;6.32;;;4.00;;
24084;SDS011;12268;52.110;5.548;2024-03-23T23:30:00;5.18;;;3.70;;
24084;SDS011;12268;52.110;5.548;2024-03-23T23:32:27;10.52;;;5.05;;
24084;SDS011;12268;52.110;5.548;2024-03-23T23:34:56;11.35;;;3.97;;
24084;SDS011;12268;52.110;5.548;2024-03-23T23:37:23;8.05;;;4.03;;
24084;SDS011;12268;52.110;5.548;2024-03-23T23:39:48;6.57;;;3.50;;
24084;SDS011;12268;52.110;5.548;2024-03-23T23:42:14;14.20;;;4.50;;
24084;SDS011;12268;52.110;5.548;2024-03-23T23:44:39;8.57;;;4.18;;
24084;SDS011;12268;52.110;5.548;2024-03-23T23:47:05;10.70;;;5.03;;
24084;SDS011;12268;52.110;5.548;2024-03-23T23:49:30;5.28;;;3.58;;
24084;SDS011;12268;52.110;5.548;2024-03-23T23:51:56;7.57;;;4.55;;
24084;SDS011;12268;52.110;5.548;2024-03-23T23:54:22;8.90;;;4.68;;
24084;SDS011;12268;52.110;5.548;2024-03-23T23:56:47;5.80;;;3.35;;
24084;SDS011;12268;52.110;5.548;2024-03-23T23:59:13;10.13;;;5.18;;
